createdAt,value
2023-04-01T00:01:01.454Z,2.20
2023-04-01T00:03:29.728Z,1.80
2023-04-01T00:06:00.059Z,1.50
2023-04-01T00:08:27.601Z,1.70
2023-04-01T00:10:55.721Z,1.80
2023-04-01T00:13:24.027Z,1.90
2023-04-01T00:15:50.907Z,2.00
2023-04-01T00:18:18.775Z,1.90
2023-04-01T00:20:51.324Z,1.90
2023-04-01T00:23:20.927Z,1.40
2023-04-01T00:25:49.941Z,2.20
2023-04-01T00:28:20.967Z,1.70
2023-04-01T00:30:49.289Z,1.80
2023-04-01T00:33:21.187Z,1.80
2023-04-01T00:35:48.374Z,1.70
2023-04-01T00:38:14.973Z,2.00
2023-04-01T00:40:47.249Z,2.20
2023-04-01T00:43:19.888Z,1.60
2023-04-01T00:45:49.751Z,1.90
2023-04-01T00:48:43.415Z,1.80
2023-04-01T00:51:17.725Z,1.60
2023-04-01T00:53:50.201Z,1.60
2023-04-01T00:56:24.523Z,1.70
2023-04-01T00:59:25.239Z,1.80
2023-04-01T01:01:51.927Z,1.70
2023-04-01T01:04:37.923Z,1.50
2023-04-01T01:07:15.569Z,1.50
2023-04-01T01:10:20.278Z,1.60
2023-04-01T01:13:01.416Z,1.70
2023-04-01T01:16:16.923Z,1.30
2023-04-01T01:19:18.533Z,1.60
2023-04-01T01:22:25.411Z,1.40
2023-04-01T01:25:06.855Z,1.30
2023-04-01T01:27:38.511Z,1.20
2023-04-01T01:30:24.497Z,1.50
2023-04-01T01:33:31.694Z,1.00
2023-04-01T01:36:07.334Z,1.20
2023-04-01T01:38:36.381Z,1.10
2023-04-01T01:41:07.362Z,1.20
2023-04-01T01:43:42.400Z,0.90
2023-04-01T01:46:16.433Z,1.00
2023-04-01T01:48:45.111Z,1.20
2023-04-01T01:51:13.160Z,1.40
2023-04-01T01:53:39.955Z,1.50
2023-04-01T01:56:07.488Z,1.20
2023-04-01T01:58:45.180Z,1.20
2023-04-01T02:01:18.914Z,1.00
2023-04-01T02:03:49.209Z,1.20
2023-04-01T02:06:21.568Z,1.30
2023-04-01T02:09:04.150Z,1.00
2023-04-01T02:11:43.129Z,1.30
2023-04-01T02:14:20.874Z,1.10
2023-04-01T02:16:50.767Z,1.20
2023-04-01T02:19:22.992Z,1.50
2023-04-01T02:22:00.207Z,1.30
2023-04-01T02:24:36.167Z,1.20
2023-04-01T02:27:05.595Z,1.10
2023-04-01T02:29:32.561Z,1.20
2023-04-01T02:32:00.828Z,1.40
2023-04-01T02:34:29.631Z,1.60
2023-04-01T02:36:58.222Z,1.60
2023-04-01T02:39:26.611Z,1.20
2023-04-01T02:41:54.688Z,1.20
2023-04-01T02:44:21.265Z,1.20
2023-04-01T02:46:49.539Z,1.50
2023-04-01T02:49:15.896Z,1.30
2023-04-01T02:51:42.815Z,1.40
2023-04-01T02:54:09.312Z,1.20
2023-04-01T02:56:36.388Z,1.00
2023-04-01T02:59:04.008Z,1.20
2023-04-01T03:01:31.328Z,1.10
2023-04-01T03:03:57.829Z,1.30
2023-04-01T03:06:24.993Z,0.90
2023-04-01T03:08:51.641Z,0.70
2023-04-01T03:11:18.089Z,1.00
2023-04-01T03:13:44.831Z,0.70
2023-04-01T03:16:12.228Z,1.10
2023-04-01T03:18:38.776Z,0.80
2023-04-01T03:21:18.252Z,1.00
2023-04-01T03:23:46.109Z,1.00
2023-04-01T03:26:14.639Z,0.90
2023-04-01T03:28:41.706Z,1.20
2023-04-01T03:31:09.321Z,1.00
2023-04-01T03:33:36.162Z,0.90
2023-04-01T03:36:07.590Z,0.80
2023-04-01T03:38:36.472Z,1.00
2023-04-01T03:41:05.350Z,1.40
2023-04-01T03:43:35.102Z,1.10
2023-04-01T03:46:01.994Z,1.60
2023-04-01T03:48:29.027Z,0.90
2023-04-01T03:50:56.315Z,1.10
2023-04-01T03:53:23.383Z,0.90
2023-04-01T03:55:52.257Z,1.10
2023-04-01T03:58:20.815Z,0.90
2023-04-01T04:00:48.482Z,0.90
2023-04-01T04:03:14.998Z,1.00
2023-04-01T04:05:50.408Z,1.00
2023-04-01T04:08:18.005Z,1.20
2023-04-01T04:10:45.060Z,0.80
2023-04-01T04:13:11.774Z,0.70
2023-04-01T04:15:39.401Z,1.10
2023-04-01T04:18:06.265Z,1.10
2023-04-01T04:20:32.829Z,0.90
2023-04-01T04:23:02.646Z,0.90
2023-04-01T04:25:29.574Z,0.80
2023-04-01T04:27:57.249Z,0.70
2023-04-01T04:30:23.610Z,1.10
2023-04-01T04:32:50.221Z,0.90
2023-04-01T04:35:17.111Z,0.70
2023-04-01T04:37:45.811Z,0.90
2023-04-01T04:40:12.613Z,1.10
2023-04-01T04:42:40.032Z,0.90
2023-04-01T04:45:07.950Z,0.70
2023-04-01T04:47:35.527Z,0.90
2023-04-01T04:50:02.869Z,0.70
2023-04-01T04:52:29.313Z,0.90
2023-04-01T04:54:58.726Z,0.80
2023-04-01T04:57:25.532Z,0.90
2023-04-01T04:59:52.163Z,0.80
2023-04-01T05:02:20.590Z,1.70
2023-04-01T05:04:47.325Z,1.30
2023-04-01T05:07:14.873Z,1.40
2023-04-01T05:09:41.526Z,1.40
2023-04-01T05:12:10.451Z,1.10
2023-04-01T05:14:37.034Z,1.00
2023-04-01T05:17:03.928Z,0.90
2023-04-01T05:19:30.573Z,1.20
2023-04-01T05:21:57.499Z,1.00
2023-04-01T05:24:23.971Z,0.80
2023-04-01T05:26:51.445Z,1.00
2023-04-01T05:29:20.184Z,0.90
2023-04-01T05:31:47.338Z,0.60
2023-04-01T05:34:16.482Z,0.80
2023-04-01T05:36:44.713Z,1.00
2023-04-01T05:39:12.912Z,1.10
2023-04-01T05:41:40.780Z,1.00
2023-04-01T05:44:07.170Z,0.80
2023-04-01T05:46:33.818Z,0.60
2023-04-01T05:49:05.498Z,0.90
2023-04-01T05:51:32.262Z,1.00
2023-04-01T05:53:58.713Z,1.00
2023-04-01T05:56:25.307Z,0.70
2023-04-01T05:58:54.538Z,0.70
2023-04-01T06:01:24.086Z,1.00
2023-04-01T06:03:51.985Z,1.60
2023-04-01T06:06:30.526Z,0.90
2023-04-01T06:09:08.573Z,0.80
2023-04-01T06:11:58.013Z,1.20
2023-04-01T06:14:49.041Z,1.50
2023-04-01T06:17:35.658Z,1.10
2023-04-01T06:21:12.020Z,0.90
2023-04-01T06:24:23.362Z,0.80
2023-04-01T06:27:42.442Z,1.00
2023-04-01T06:31:02.998Z,0.70
2023-04-01T06:33:47.245Z,1.10
2023-04-01T06:36:35.837Z,1.40
2023-04-01T06:39:41.582Z,1.00
2023-04-01T06:42:34.932Z,0.60
2023-04-01T06:45:37.141Z,0.70
2023-04-01T06:48:37.809Z,0.90
2023-04-01T06:51:29.107Z,1.20
2023-04-01T06:54:32.613Z,0.70
2023-04-01T06:57:09.186Z,1.30
2023-04-01T06:59:39.404Z,1.40
2023-04-01T07:02:40.374Z,1.20
2023-04-01T07:05:10.041Z,0.80
2023-04-01T07:07:45.415Z,1.10
2023-04-01T07:10:22.452Z,2.20
2023-04-01T07:13:00.180Z,2.50
2023-04-01T07:15:38.982Z,1.80
2023-04-01T07:18:26.174Z,1.10
2023-04-01T07:20:57.014Z,1.30
2023-04-01T07:23:34.223Z,1.00
2023-04-01T07:26:17.361Z,0.70
2023-04-01T07:28:46.713Z,0.70
2023-04-01T07:31:30.442Z,0.90
2023-04-01T07:34:20.224Z,0.70
2023-04-01T07:37:06.782Z,0.90
2023-04-01T07:40:12.227Z,0.90
2023-04-01T07:43:18.449Z,1.20
2023-04-01T07:46:17.472Z,0.90
2023-04-01T07:49:07.165Z,1.00
2023-04-01T07:52:16.321Z,0.80
2023-04-01T07:55:00.125Z,0.60
2023-04-01T07:57:53.324Z,1.20
2023-04-01T08:00:37.733Z,0.80
2023-04-01T08:03:38.882Z,1.10
2023-04-01T08:06:27.371Z,1.30
2023-04-01T08:09:44.685Z,0.80
2023-04-01T08:13:12.145Z,0.70
2023-04-01T08:16:20.640Z,1.20
2023-04-01T08:19:16.285Z,0.90
2023-04-01T08:21:49.880Z,1.30
2023-04-01T08:24:47.951Z,1.10
2023-04-01T08:27:38.523Z,1.20
2023-04-01T08:30:18.367Z,1.00
2023-04-01T08:33:01.340Z,0.90
2023-04-01T08:35:45.302Z,0.90
2023-04-01T08:38:29.986Z,1.30
2023-04-01T08:41:42.218Z,1.30
2023-04-01T08:44:30.927Z,0.80
2023-04-01T08:47:32.958Z,0.90
2023-04-01T08:50:36.037Z,1.20
2023-04-01T08:56:20.048Z,0.90
2023-04-01T08:59:24.620Z,0.60
2023-04-01T09:02:43.151Z,0.50
2023-04-01T09:05:51.303Z,1.30
2023-04-01T09:09:15.247Z,1.30
2023-04-01T09:12:09.311Z,0.90
2023-04-01T09:15:38.033Z,1.00
2023-04-01T09:19:17.575Z,0.70
2023-04-01T09:22:20.080Z,0.50
2023-04-01T09:24:54.766Z,0.80
2023-04-01T09:27:44.188Z,0.90
2023-04-01T09:30:40.022Z,0.80
2023-04-01T09:33:42.273Z,0.40
2023-04-01T09:36:38.267Z,1.10
2023-04-01T09:39:14.037Z,1.20
2023-04-01T09:42:05.331Z,1.30
2023-04-01T09:45:00.730Z,0.90
2023-04-01T09:48:01.412Z,0.70
2023-04-01T09:50:38.294Z,0.90
2023-04-01T09:53:35.934Z,1.30
2023-04-01T09:56:52.616Z,0.80
2023-04-01T10:00:05.815Z,0.80
2023-04-01T10:02:51.505Z,0.80
2023-04-01T10:05:46.103Z,0.60
2023-04-01T10:08:53.908Z,2.30
2023-04-01T10:11:51.212Z,0.90
2023-04-01T10:14:48.717Z,0.80
2023-04-01T10:17:33.177Z,0.90
2023-04-01T10:20:40.587Z,0.80
2023-04-01T10:24:00.044Z,0.90
2023-04-01T10:27:00.939Z,0.60
2023-04-01T10:30:11.282Z,0.70
2023-04-01T10:33:15.613Z,0.80
2023-04-01T10:36:21.042Z,0.80
2023-04-01T10:39:07.414Z,0.80
2023-04-01T10:41:54.076Z,0.60
2023-04-01T10:45:17.618Z,0.50
2023-04-01T10:48:06.074Z,0.80
2023-04-01T10:50:53.865Z,0.60
2023-04-01T10:53:51.416Z,0.70
2023-04-01T10:56:39.531Z,0.40
2023-04-01T10:59:45.965Z,0.50
2023-04-01T11:02:31.593Z,0.50
2023-04-01T11:05:20.914Z,0.70
2023-04-01T11:08:37.195Z,0.60
2023-04-01T11:11:54.719Z,0.60
2023-04-01T11:14:53.533Z,0.50
2023-04-01T11:17:48.213Z,0.60
2023-04-01T11:21:13.490Z,0.50
2023-04-01T11:24:08.131Z,0.70
2023-04-01T11:26:58.530Z,1.00
2023-04-01T11:30:08.302Z,0.60
2023-04-01T11:33:09.552Z,0.60
2023-04-01T11:35:51.250Z,0.40
2023-04-01T11:38:42.334Z,0.70
2023-04-01T11:41:56.162Z,0.70
2023-04-01T11:44:28.429Z,0.50
2023-04-01T11:47:16.360Z,0.80
2023-04-01T11:50:13.279Z,0.50
2023-04-01T11:53:11.627Z,0.40
2023-04-01T11:56:02.227Z,0.50
2023-04-01T11:59:03.911Z,0.40
2023-04-01T12:02:32.620Z,0.40
2023-04-01T12:05:22.540Z,0.60
2023-04-01T12:08:03.642Z,0.60
2023-04-01T12:11:18.170Z,0.50
2023-04-01T12:14:05.636Z,0.70
2023-04-01T12:17:00.561Z,0.60
2023-04-01T12:19:49.150Z,0.50
2023-04-01T12:22:44.964Z,0.50
2023-04-01T12:25:35.802Z,0.60
2023-04-01T12:28:30.617Z,0.60
2023-04-01T12:31:56.687Z,0.50
2023-04-01T12:34:58.438Z,0.60
2023-04-01T12:37:45.829Z,0.40
2023-04-01T12:41:01.790Z,0.70
2023-04-01T12:44:13.940Z,0.50
2023-04-01T12:47:01.528Z,0.60
2023-04-01T12:49:57.540Z,1.00
2023-04-01T12:53:03.984Z,0.60
2023-04-01T12:55:51.043Z,0.70
2023-04-01T12:58:50.458Z,0.80
2023-04-01T13:01:31.990Z,0.70
2023-04-01T13:04:32.527Z,0.60
2023-04-01T13:07:27.359Z,0.60
2023-04-01T13:10:31.192Z,0.40
2023-04-01T13:13:20.606Z,0.60
2023-04-01T13:15:56.446Z,0.50
2023-04-01T13:19:03.585Z,0.40
2023-04-01T13:22:10.649Z,0.50
2023-04-01T13:25:11.201Z,0.40
2023-04-01T13:27:44.848Z,0.70
2023-04-01T13:30:34.434Z,0.60
2023-04-01T13:33:47.189Z,0.60
2023-04-01T13:37:11.131Z,0.80
2023-04-01T13:40:18.491Z,0.60
2023-04-01T13:42:57.695Z,0.40
2023-04-01T13:45:40.222Z,0.80
2023-04-01T13:48:51.765Z,0.40
2023-04-01T13:52:02.781Z,0.40
2023-04-01T13:54:45.350Z,0.40
2023-04-01T13:57:49.365Z,0.50
2023-04-01T14:00:57.700Z,0.50
2023-04-01T14:03:45.553Z,0.60
2023-04-01T14:07:11.671Z,0.50
2023-04-01T14:10:26.267Z,0.50
2023-04-01T14:13:23.682Z,0.90
2023-04-01T14:16:03.499Z,0.60
2023-04-01T14:18:57.713Z,0.60
2023-04-01T14:21:42.343Z,0.50
2023-04-01T14:24:26.779Z,0.50
2023-04-01T14:27:55.611Z,0.50
2023-04-01T14:31:04.377Z,0.60
2023-04-01T14:33:55.346Z,0.40
2023-04-01T14:36:43.544Z,0.40
2023-04-01T14:39:39.887Z,0.60
2023-04-01T14:43:07.196Z,0.70
2023-04-01T14:46:14.949Z,0.50
2023-04-01T14:49:03.114Z,0.50
2023-04-01T14:51:39.837Z,0.40
2023-04-01T14:54:12.506Z,0.70
2023-04-01T14:56:57.318Z,0.70
2023-04-01T14:59:24.382Z,0.50
2023-04-01T15:02:43.851Z,0.50
2023-04-01T15:06:01.273Z,0.80
2023-04-01T15:08:44.876Z,0.60
2023-04-01T15:11:28.832Z,0.60
2023-04-01T15:14:05.384Z,0.50
2023-04-01T15:16:52.943Z,0.60
2023-04-01T15:19:53.339Z,0.50
2023-04-01T15:22:38.956Z,0.90
2023-04-01T15:25:54.665Z,0.50
2023-04-01T15:28:44.669Z,0.70
2023-04-01T15:31:28.188Z,0.50
2023-04-01T15:34:41.317Z,0.50
2023-04-01T15:37:49.000Z,0.60
2023-04-01T15:40:31.267Z,0.60
2023-04-01T15:43:00.503Z,0.40
2023-04-01T15:45:57.502Z,0.60
2023-04-01T15:48:39.877Z,0.80
2023-04-01T15:51:27.908Z,0.60
2023-04-01T15:54:30.909Z,0.70
2023-04-01T15:57:38.081Z,0.50
2023-04-01T16:00:17.500Z,0.40
2023-04-01T16:03:22.761Z,0.50
2023-04-01T16:06:10.783Z,0.70
2023-04-01T16:08:48.484Z,0.70
2023-04-01T16:11:41.070Z,0.90
2023-04-01T16:14:40.359Z,0.70
2023-04-01T16:17:59.451Z,0.70
2023-04-01T16:21:03.395Z,4.50
2023-04-01T16:23:49.249Z,3.00
2023-04-01T16:26:40.840Z,1.10
2023-04-01T16:29:31.373Z,0.90
2023-04-01T16:32:30.959Z,0.60
2023-04-01T16:35:40.704Z,0.80
2023-04-01T16:38:33.832Z,0.60
2023-04-01T16:41:03.628Z,0.70
2023-04-01T16:44:09.218Z,0.80
2023-04-01T16:46:48.488Z,0.90
2023-04-01T16:49:44.829Z,1.00
2023-04-01T16:52:32.212Z,1.50
2023-04-01T16:55:15.346Z,1.10
2023-04-01T16:57:51.764Z,1.20
2023-04-01T17:00:48.046Z,0.80
2023-04-01T17:03:39.312Z,1.00
2023-04-01T17:06:34.353Z,0.70
2023-04-01T17:09:32.418Z,0.70
2023-04-01T17:12:18.497Z,1.00
2023-04-01T17:15:17.606Z,1.00
2023-04-01T17:18:29.186Z,1.60
2023-04-01T17:21:24.514Z,1.30
2023-04-01T17:24:29.391Z,1.50
2023-04-01T17:27:41.324Z,1.20
2023-04-01T17:30:25.868Z,1.10
2023-04-01T17:33:26.055Z,2.50
2023-04-01T17:36:50.726Z,2.70
2023-04-01T17:39:43.185Z,3.70
2023-04-01T17:42:37.354Z,3.40
2023-04-01T17:45:49.977Z,4.90
2023-04-01T17:48:38.490Z,4.00
2023-04-01T17:51:47.408Z,3.50
2023-04-01T17:54:57.365Z,2.60
2023-04-01T17:57:52.435Z,3.20
2023-04-01T18:00:50.705Z,2.80
2023-04-01T18:03:56.635Z,3.50
2023-04-01T18:10:01.340Z,2.00
2023-04-01T18:12:56.611Z,1.30
2023-04-01T18:16:00.298Z,2.00
2023-04-01T18:19:03.494Z,1.80
2023-04-01T18:21:43.484Z,1.80
2023-04-01T18:25:10.202Z,10.00
2023-04-01T18:28:25.475Z,5.50
2023-04-01T18:31:03.634Z,5.20
2023-04-01T18:34:08.412Z,4.30
2023-04-01T18:36:58.278Z,3.10
2023-04-01T18:39:50.668Z,3.30
2023-04-01T18:42:51.574Z,6.30
2023-04-01T18:45:43.604Z,5.10
2023-04-01T18:48:44.971Z,4.00
2023-04-01T18:54:33.470Z,2.80
2023-04-01T18:57:14.438Z,3.60
2023-04-01T18:59:54.020Z,2.90
2023-04-01T19:02:49.021Z,2.50
2023-04-01T19:05:37.300Z,3.50
2023-04-01T19:08:30.282Z,2.90
2023-04-01T19:11:27.685Z,3.30
2023-04-01T19:14:19.916Z,3.80
2023-04-01T19:17:33.334Z,5.30
2023-04-01T19:20:26.090Z,5.00
2023-04-01T19:23:54.174Z,4.50
2023-04-01T19:26:47.472Z,5.40
2023-04-01T19:32:57.094Z,3.50
2023-04-01T19:35:47.496Z,4.00
2023-04-01T19:38:52.049Z,4.80
2023-04-01T19:41:53.212Z,3.80
2023-04-01T19:44:30.154Z,4.40
2023-04-01T19:47:18.312Z,4.90
2023-04-01T19:50:31.759Z,3.70
2023-04-01T19:53:26.932Z,2.10
2023-04-01T19:56:22.109Z,2.10
2023-04-01T19:59:02.935Z,1.00
2023-04-01T20:02:38.384Z,2.60
2023-04-01T20:05:47.893Z,1.70
2023-04-01T20:08:29.200Z,1.90
2023-04-01T20:11:31.093Z,2.20
2023-04-01T20:14:23.360Z,3.00
2023-04-01T20:17:23.493Z,3.20
2023-04-01T20:20:12.416Z,3.40
2023-04-01T20:22:45.067Z,2.80
2023-04-01T20:25:32.655Z,3.40
2023-04-01T20:28:27.677Z,2.30
2023-04-01T20:31:26.751Z,2.40
2023-04-01T20:34:32.115Z,3.10
2023-04-01T20:37:11.599Z,2.80
2023-04-01T20:40:16.046Z,8.80
2023-04-01T20:42:57.643Z,9.80
2023-04-01T20:46:03.948Z,8.40
2023-04-01T20:49:03.280Z,6.10
2023-04-01T20:51:35.206Z,10.50
2023-04-01T20:54:38.540Z,22.60
2023-04-01T20:57:51.828Z,8.30
2023-04-01T21:00:56.003Z,5.00
2023-04-01T21:03:49.965Z,3.80
2023-04-01T21:07:06.710Z,3.30
2023-04-01T21:10:13.454Z,3.70
2023-04-01T21:13:33.818Z,4.10
2023-04-01T21:16:35.808Z,5.10
2023-04-01T21:19:41.211Z,5.60
2023-04-01T21:22:48.235Z,7.70
2023-04-01T21:25:37.718Z,3.00
2023-04-01T21:28:32.323Z,2.50
2023-04-01T21:31:42.261Z,2.60
2023-04-01T21:35:04.240Z,2.10
2023-04-01T21:40:33.820Z,2.40
2023-04-01T21:43:32.507Z,2.10
2023-04-01T21:46:38.243Z,2.00
2023-04-01T21:49:40.921Z,2.10
2023-04-01T21:52:35.346Z,2.20
2023-04-01T21:55:42.453Z,1.40
2023-04-01T21:59:03.256Z,1.70
2023-04-01T22:02:00.280Z,2.10
2023-04-01T22:05:10.521Z,2.00
2023-04-01T22:08:11.462Z,1.90
2023-04-01T22:10:51.232Z,2.00
2023-04-01T22:14:04.970Z,1.50
2023-04-01T22:16:58.607Z,1.80
2023-04-01T22:19:37.459Z,1.40
2023-04-01T22:22:25.383Z,1.70
2023-04-01T22:25:31.349Z,1.30
2023-04-01T22:28:06.982Z,1.70
2023-04-01T22:30:43.138Z,1.30
2023-04-01T22:33:28.189Z,1.20
2023-04-01T22:36:14.073Z,1.30
2023-04-01T22:39:11.232Z,1.40
2023-04-01T22:42:02.869Z,1.60
2023-04-01T22:45:07.627Z,1.50
2023-04-01T22:47:57.419Z,1.60
2023-04-01T22:50:35.891Z,1.10
2023-04-01T22:53:37.420Z,1.50
2023-04-01T22:56:13.097Z,0.90
2023-04-01T22:58:55.762Z,1.10
2023-04-01T23:01:32.987Z,1.70
2023-04-01T23:04:05.631Z,1.60
2023-04-01T23:06:44.707Z,1.30
2023-04-01T23:09:29.171Z,1.80
2023-04-01T23:12:04.577Z,1.40
2023-04-01T23:14:51.326Z,1.20
2023-04-01T23:17:45.701Z,1.30
2023-04-01T23:20:22.949Z,1.30
2023-04-01T23:24:00.586Z,1.70
2023-04-01T23:26:50.325Z,2.20
2023-04-01T23:29:21.334Z,2.30
2023-04-01T23:32:00.309Z,2.20
2023-04-01T23:34:35.320Z,1.90
2023-04-01T23:37:10.502Z,1.20
2023-04-01T23:39:41.954Z,1.50
2023-04-01T23:42:25.820Z,1.40
2023-04-01T23:45:00.359Z,1.70
2023-04-01T23:47:39.228Z,1.80
2023-04-01T23:50:26.137Z,1.70
2023-04-01T23:53:03.580Z,2.60
2023-04-01T23:55:35.826Z,2.50
2023-04-01T23:58:05.335Z,2.10
